sensor_id;sensor_type;location;lat;lon;timestamp;pressure;altitude;pressure_sealevel;temperature;humidity
60920;BME280;59039;52.108;19.942;2023-05-12T00:00:15;101165.56;;;10.53;48.99
60920;BME280;59039;52.108;19.942;2023-05-12T00:05:56;101170.89;;;10.48;48.58
60920;BME280;59039;52.108;19.942;2023-05-12T00:08:24;101171.11;;;10.43;49.02
60920;BME280;59039;52.108;19.942;2023-05-12T00:10:50;101171.84;;;10.43;48.38
60920;BME280;59039;52.108;19.942;2023-05-12T00:13:43;101175.39;;;10.40;48.82
60920;BME280;59039;52.108;19.942;2023-05-12T00:16:08;101173.42;;;10.36;49.06
60920;BME280;59039;52.108;19.942;2023-05-12T00:18:37;101177.21;;;10.32;49.07
60920;BME280;59039;52.108;19.942;2023-05-12T00:21:02;101172.66;;;10.30;48.69
60920;BME280;59039;52.108;19.942;2023-05-12T00:26:24;101180.75;;;10.22;49.03
60920;BME280;59039;52.108;19.942;2023-05-12T00:28:49;101181.15;;;10.15;49.87
60920;BME280;59039;52.108;19.942;2023-05-12T00:31:14;101182.27;;;10.13;49.59
60920;BME280;59039;52.108;19.942;2023-05-12T00:34:09;101180.64;;;10.11;49.55
60920;BME280;59039;52.108;19.942;2023-05-12T00:36:37;101180.05;;;10.07;50.38
60920;BME280;59039;52.108;19.942;2023-05-12T00:41:55;101181.34;;;10.00;50.65
60920;BME280;59039;52.108;19.942;2023-05-12T00:44:20;101186.23;;;9.98;50.29
60920;BME280;59039;52.108;19.942;2023-05-12T00:46:45;101184.61;;;9.94;49.84
60920;BME280;59039;52.108;19.942;2023-05-12T00:49:14;101189.64;;;9.90;49.87
60920;BME280;59039;52.108;19.942;2023-05-12T00:51:39;101190.89;;;9.89;50.17
60920;BME280;59039;52.108;19.942;2023-05-12T00:54:05;101191.85;;;9.84;51.42
60920;BME280;59039;52.108;19.942;2023-05-12T00:56:30;101195.24;;;9.82;50.76
60920;BME280;59039;52.108;19.942;2023-05-12T00:58:56;101193.35;;;9.78;50.55
60920;BME280;59039;52.108;19.942;2023-05-12T01:01:22;101197.73;;;9.74;50.68
60920;BME280;59039;52.108;19.942;2023-05-12T01:03:47;101199.27;;;9.71;51.25
60920;BME280;59039;52.108;19.942;2023-05-12T01:06:58;101200.73;;;9.69;51.15
60920;BME280;59039;52.108;19.942;2023-05-12T01:09:29;101201.00;;;9.63;51.34
60920;BME280;59039;52.108;19.942;2023-05-12T01:11:54;101201.08;;;9.62;51.10
60920;BME280;59039;52.108;19.942;2023-05-12T01:14:25;101205.21;;;9.58;52.11
60920;BME280;59039;52.108;19.942;2023-05-12T01:16:51;101203.94;;;9.56;51.77
60920;BME280;59039;52.108;19.942;2023-05-12T01:22:36;101203.41;;;9.52;51.06
60920;BME280;59039;52.108;19.942;2023-05-12T01:25:12;101203.53;;;9.46;51.39
60920;BME280;59039;52.108;19.942;2023-05-12T01:27:42;101206.65;;;9.41;51.66
60920;BME280;59039;52.108;19.942;2023-05-12T01:30:13;101212.41;;;9.39;52.02
60920;BME280;59039;52.108;19.942;2023-05-12T01:32:43;101211.41;;;9.36;51.60
60920;BME280;59039;52.108;19.942;2023-05-12T01:35:08;101210.39;;;9.33;51.95
60920;BME280;59039;52.108;19.942;2023-05-12T01:37:34;101213.27;;;9.31;52.89
60920;BME280;59039;52.108;19.942;2023-05-12T01:40:00;101216.10;;;9.30;52.81
60920;BME280;59039;52.108;19.942;2023-05-12T01:42:32;101219.21;;;9.27;52.09
60920;BME280;59039;52.108;19.942;2023-05-12T01:44:58;101217.14;;;9.24;52.24
60920;BME280;59039;52.108;19.942;2023-05-12T01:47:23;101215.48;;;9.20;52.52
60920;BME280;59039;52.108;19.942;2023-05-12T01:49:49;101219.98;;;9.15;52.20
60920;BME280;59039;52.108;19.942;2023-05-12T01:52:14;101219.30;;;9.13;52.47
60920;BME280;59039;52.108;19.942;2023-05-12T01:55:00;101225.23;;;9.09;53.04
60920;BME280;59039;52.108;19.942;2023-05-12T01:57:59;101226.02;;;9.06;52.80
60920;BME280;59039;52.108;19.942;2023-05-12T02:00:23;101222.58;;;9.01;53.70
60920;BME280;59039;52.108;19.942;2023-05-12T02:03:51;101221.80;;;9.00;53.39
60920;BME280;59039;52.108;19.942;2023-05-12T02:06:39;101222.03;;;8.97;53.36
60920;BME280;59039;52.108;19.942;2023-05-12T02:09:46;101224.54;;;8.92;54.15
60920;BME280;59039;52.108;19.942;2023-05-12T02:12:11;101224.13;;;8.89;53.42
60920;BME280;59039;52.108;19.942;2023-05-12T02:14:39;101222.98;;;8.88;53.34
60920;BME280;59039;52.108;19.942;2023-05-12T02:17:05;101224.61;;;8.85;53.62
60920;BME280;59039;52.108;19.942;2023-05-12T02:19:40;101225.08;;;8.80;54.38
60920;BME280;59039;52.108;19.942;2023-05-12T02:22:11;101224.82;;;8.78;54.07
60920;BME280;59039;52.108;19.942;2023-05-12T02:24:36;101229.85;;;8.74;54.74
60920;BME280;59039;52.108;19.942;2023-05-12T02:27:10;101230.81;;;8.73;54.09
60920;BME280;59039;52.108;19.942;2023-05-12T02:29:35;101228.94;;;8.69;54.29
60920;BME280;59039;52.108;19.942;2023-05-12T02:32:10;101232.73;;;8.67;54.35
60920;BME280;59039;52.108;19.942;2023-05-12T02:34:56;101235.10;;;8.65;54.58
60920;BME280;59039;52.108;19.942;2023-05-12T02:37:21;101239.02;;;8.61;54.51
60920;BME280;59039;52.108;19.942;2023-05-12T02:39:48;101237.36;;;8.59;54.49
60920;BME280;59039;52.108;19.942;2023-05-12T02:42:14;101238.54;;;8.55;55.02
60920;BME280;59039;52.108;19.942;2023-05-12T02:44:59;101239.66;;;8.55;55.41
60920;BME280;59039;52.108;19.942;2023-05-12T02:47:28;101239.27;;;8.53;55.41
60920;BME280;59039;52.108;19.942;2023-05-12T02:50:02;101239.19;;;8.52;55.63
60920;BME280;59039;52.108;19.942;2023-05-12T02:52:57;101241.59;;;8.51;55.18
60920;BME280;59039;52.108;19.942;2023-05-12T02:55:25;101242.40;;;8.50;55.53
60920;BME280;59039;52.108;19.942;2023-05-12T03:00:31;101247.45;;;8.44;55.87
60920;BME280;59039;52.108;19.942;2023-05-12T03:02:57;101242.50;;;8.40;56.32
60920;BME280;59039;52.108;19.942;2023-05-12T03:05:22;101242.66;;;8.40;55.67
60920;BME280;59039;52.108;19.942;2023-05-12T03:07:55;101243.68;;;8.38;55.57
60920;BME280;59039;52.108;19.942;2023-05-12T03:10:30;101242.59;;;8.36;55.49
60920;BME280;59039;52.108;19.942;2023-05-12T03:12:55;101242.10;;;8.33;55.52
60920;BME280;59039;52.108;19.942;2023-05-12T03:15:21;101239.25;;;8.30;55.42
60920;BME280;59039;52.108;19.942;2023-05-12T03:17:46;101240.05;;;8.27;55.62
60920;BME280;59039;52.108;19.942;2023-05-12T03:20:23;101245.84;;;8.22;56.22
60920;BME280;59039;52.108;19.942;2023-05-12T03:23:09;101243.48;;;8.20;56.86
60920;BME280;59039;52.108;19.942;2023-05-12T03:25:54;101246.96;;;8.19;56.52
60920;BME280;59039;52.108;19.942;2023-05-12T03:31:22;101254.73;;;8.19;58.27
60920;BME280;59039;52.108;19.942;2023-05-12T03:34:20;101254.68;;;8.22;57.08
60920;BME280;59039;52.108;19.942;2023-05-12T03:39:39;101256.11;;;8.34;56.45
60920;BME280;59039;52.108;19.942;2023-05-12T03:42:04;101256.89;;;8.43;56.30
60920;BME280;59039;52.108;19.942;2023-05-12T03:44:30;101263.09;;;8.51;56.54
60920;BME280;59039;52.108;19.942;2023-05-12T03:46:55;101264.38;;;8.60;56.59
60920;BME280;59039;52.108;19.942;2023-05-12T03:49:29;101262.02;;;8.69;56.32
60920;BME280;59039;52.108;19.942;2023-05-12T03:51:58;101264.91;;;8.78;56.52
60920;BME280;59039;52.108;19.942;2023-05-12T03:54:23;101262.45;;;8.91;56.38
60920;BME280;59039;52.108;19.942;2023-05-12T03:56:48;101260.29;;;9.04;56.09
60920;BME280;59039;52.108;19.942;2023-05-12T03:59:18;101262.34;;;9.15;56.13
60920;BME280;59039;52.108;19.942;2023-05-12T04:02:21;101264.71;;;9.28;55.88
60920;BME280;59039;52.108;19.942;2023-05-12T04:04:45;101266.23;;;9.45;55.61
60920;BME280;59039;52.108;19.942;2023-05-12T04:07:20;101268.54;;;9.60;55.32
60920;BME280;59039;52.108;19.942;2023-05-12T04:09:45;101272.37;;;9.75;55.05
60920;BME280;59039;52.108;19.942;2023-05-12T04:12:21;101273.24;;;9.89;54.89
60920;BME280;59039;52.108;19.942;2023-05-12T04:14:46;101274.34;;;10.01;54.71
60920;BME280;59039;52.108;19.942;2023-05-12T04:17:11;101272.38;;;10.14;54.35
60920;BME280;59039;52.108;19.942;2023-05-12T04:19:37;101276.67;;;10.25;54.33
60920;BME280;59039;52.108;19.942;2023-05-12T04:24:48;101275.63;;;10.50;54.05
60920;BME280;59039;52.108;19.942;2023-05-12T04:27:13;101273.23;;;10.65;53.77
60920;BME280;59039;52.108;19.942;2023-05-12T04:29:38;101274.15;;;10.77;53.70
60920;BME280;59039;52.108;19.942;2023-05-12T04:32:07;101274.20;;;10.89;53.49
60920;BME280;59039;52.108;19.942;2023-05-12T04:34:32;101276.05;;;11.01;53.44
60920;BME280;59039;52.108;19.942;2023-05-12T04:36:57;101277.55;;;11.13;53.14
60920;BME280;59039;52.108;19.942;2023-05-12T04:39:23;101271.82;;;11.22;53.03
60920;BME280;59039;52.108;19.942;2023-05-12T04:42:07;101277.38;;;11.39;52.97
60920;BME280;59039;52.108;19.942;2023-05-12T04:44:32;101276.21;;;11.54;52.68
60920;BME280;59039;52.108;19.942;2023-05-12T04:46:58;101279.52;;;11.69;52.40
60920;BME280;59039;52.108;19.942;2023-05-12T04:49:23;101281.23;;;11.78;52.21
60920;BME280;59039;52.108;19.942;2023-05-12T04:51:48;101281.31;;;11.89;51.88
60920;BME280;59039;52.108;19.942;2023-05-12T04:54:17;101284.73;;;12.01;51.52
60920;BME280;59039;52.108;19.942;2023-05-12T04:56:43;101287.84;;;12.15;50.97
60920;BME280;59039;52.108;19.942;2023-05-12T04:59:08;101285.16;;;12.28;51.10
60920;BME280;59039;52.108;19.942;2023-05-12T05:01:42;101286.94;;;12.43;50.99
60920;BME280;59039;52.108;19.942;2023-05-12T05:04:10;101290.19;;;12.57;50.51
60920;BME280;59039;52.108;19.942;2023-05-12T05:06:35;101290.10;;;12.73;50.14
60920;BME280;59039;52.108;19.942;2023-05-12T05:09:01;101288.59;;;12.91;49.87
60920;BME280;59039;52.108;19.942;2023-05-12T05:11:27;101291.98;;;13.05;49.34
60920;BME280;59039;52.108;19.942;2023-05-12T05:13:52;101291.15;;;13.13;49.04
60920;BME280;59039;52.108;19.942;2023-05-12T05:16:17;101291.28;;;13.19;49.07
60920;BME280;59039;52.108;19.942;2023-05-12T05:18:46;101290.27;;;13.28;48.66
60920;BME280;59039;52.108;19.942;2023-05-12T05:21:20;101285.58;;;13.37;48.78
60920;BME280;59039;52.108;19.942;2023-05-12T05:23:45;101285.60;;;13.48;48.86
60920;BME280;59039;52.108;19.942;2023-05-12T05:26:11;101292.58;;;13.56;48.18
60920;BME280;59039;52.108;19.942;2023-05-12T05:28:36;101290.40;;;13.65;48.64
60920;BME280;59039;52.108;19.942;2023-05-12T05:31:02;101292.05;;;13.85;48.48
60920;BME280;59039;52.108;19.942;2023-05-12T05:33:36;101291.04;;;14.06;47.99
60920;BME280;59039;52.108;19.942;2023-05-12T05:36:02;101292.50;;;14.22;47.66
60920;BME280;59039;52.108;19.942;2023-05-12T05:38:45;101291.55;;;14.38;47.67
60920;BME280;59039;52.108;19.942;2023-05-12T05:41:14;101293.09;;;14.54;46.93
60920;BME280;59039;52.108;19.942;2023-05-12T05:43:39;101293.61;;;14.63;46.55
60920;BME280;59039;52.108;19.942;2023-05-12T05:46:07;101295.00;;;14.69;46.83
60920;BME280;59039;52.108;19.942;2023-05-12T05:48:33;101292.39;;;14.80;46.41
60920;BME280;59039;52.108;19.942;2023-05-12T05:51:07;101292.46;;;14.95;46.52
60920;BME280;59039;52.108;19.942;2023-05-12T05:53:33;101295.05;;;15.12;45.86
60920;BME280;59039;52.108;19.942;2023-05-12T05:56:00;101295.85;;;15.23;45.42
60920;BME280;59039;52.108;19.942;2023-05-12T05:58:26;101297.76;;;15.34;45.62
60920;BME280;59039;52.108;19.942;2023-05-12T06:00:51;101297.52;;;15.48;45.49
60920;BME280;59039;52.108;19.942;2023-05-12T06:03:25;101298.88;;;15.61;45.12
60920;BME280;59039;52.108;19.942;2023-05-12T06:05:51;101306.37;;;15.77;45.51
60920;BME280;59039;52.108;19.942;2023-05-12T06:08:16;101304.72;;;15.93;44.98
60920;BME280;59039;52.108;19.942;2023-05-12T06:10:42;101306.88;;;16.09;44.75
60920;BME280;59039;52.108;19.942;2023-05-12T06:13:07;101304.72;;;16.20;44.57
60920;BME280;59039;52.108;19.942;2023-05-12T06:15:33;101307.92;;;16.37;44.39
60920;BME280;59039;52.108;19.942;2023-05-12T06:17:58;101308.70;;;16.51;44.27
60920;BME280;59039;52.108;19.942;2023-05-12T06:20:23;101314.23;;;16.67;43.74
60920;BME280;59039;52.108;19.942;2023-05-12T06:22:49;101309.48;;;16.77;43.77
60920;BME280;59039;52.108;19.942;2023-05-12T06:25:14;101310.20;;;16.87;43.35
60920;BME280;59039;52.108;19.942;2023-05-12T06:27:39;101304.80;;;16.99;42.99
60920;BME280;59039;52.108;19.942;2023-05-12T06:30:05;101306.69;;;17.13;42.54
60920;BME280;59039;52.108;19.942;2023-05-12T06:32:52;101301.39;;;17.19;41.91
60920;BME280;59039;52.108;19.942;2023-05-12T06:35:16;101299.91;;;17.24;41.92
60920;BME280;59039;52.108;19.942;2023-05-12T06:37:49;101301.64;;;17.35;42.14
60920;BME280;59039;52.108;19.942;2023-05-12T06:40:15;101300.45;;;17.47;41.73
60920;BME280;59039;52.108;19.942;2023-05-12T06:42:41;101300.08;;;17.55;41.65
60920;BME280;59039;52.108;19.942;2023-05-12T06:45:16;101298.59;;;17.63;41.21
60920;BME280;59039;52.108;19.942;2023-05-12T06:48:01;101301.37;;;17.68;41.00
60920;BME280;59039;52.108;19.942;2023-05-12T06:50:30;101298.25;;;17.77;41.02
60920;BME280;59039;52.108;19.942;2023-05-12T06:52:55;101297.82;;;17.88;40.28
60920;BME280;59039;52.108;19.942;2023-05-12T06:55:21;101301.94;;;17.95;39.44
60920;BME280;59039;52.108;19.942;2023-05-12T06:57:55;101301.70;;;17.96;39.29
60920;BME280;59039;52.108;19.942;2023-05-12T07:00:48;101299.15;;;17.97;39.35
60920;BME280;59039;52.108;19.942;2023-05-12T07:03:22;101301.19;;;18.03;38.89
60920;BME280;59039;52.108;19.942;2023-05-12T07:05:47;101302.71;;;18.13;38.45
60920;BME280;59039;52.108;19.942;2023-05-12T07:08:20;101298.21;;;18.20;38.72
60920;BME280;59039;52.108;19.942;2023-05-12T07:10:45;101299.95;;;18.24;38.17
60920;BME280;59039;52.108;19.942;2023-05-12T07:13:31;101298.16;;;18.33;37.69
60920;BME280;59039;52.108;19.942;2023-05-12T07:15:56;101301.39;;;18.38;37.75
60920;BME280;59039;52.108;19.942;2023-05-12T07:18:21;101302.53;;;18.46;37.02
60920;BME280;59039;52.108;19.942;2023-05-12T07:20:47;101298.15;;;18.54;36.22
60920;BME280;59039;52.108;19.942;2023-05-12T07:23:12;101296.98;;;18.58;36.55
60920;BME280;59039;52.108;19.942;2023-05-12T07:25:37;101296.26;;;18.68;36.30
60920;BME280;59039;52.108;19.942;2023-05-12T07:28:03;101299.56;;;18.79;36.09
60920;BME280;59039;52.108;19.942;2023-05-12T07:30:37;101298.35;;;18.83;35.02
60920;BME280;59039;52.108;19.942;2023-05-12T07:33:11;101295.70;;;18.84;34.62
60920;BME280;59039;52.108;19.942;2023-05-12T07:35:37;101301.08;;;18.86;35.03
60920;BME280;59039;52.108;19.942;2023-05-12T07:38:12;101299.98;;;18.92;35.32
60920;BME280;59039;52.108;19.942;2023-05-12T07:40:41;101305.00;;;19.06;35.25
60920;BME280;59039;52.108;19.942;2023-05-12T07:43:06;101301.35;;;19.10;34.33
60920;BME280;59039;52.108;19.942;2023-05-12T07:45:31;101304.96;;;19.09;33.95
60920;BME280;59039;52.108;19.942;2023-05-12T07:47:57;101296.50;;;19.03;34.11
60920;BME280;59039;52.108;19.942;2023-05-12T07:50:22;101298.11;;;19.06;33.73
60920;BME280;59039;52.108;19.942;2023-05-12T07:53:04;101305.83;;;19.06;33.65
60920;BME280;59039;52.108;19.942;2023-05-12T07:55:30;101295.37;;;19.02;34.09
60920;BME280;59039;52.108;19.942;2023-05-12T07:58:01;101295.52;;;19.12;33.95
60920;BME280;59039;52.108;19.942;2023-05-12T08:00:46;101285.95;;;19.15;33.96
60920;BME280;59039;52.108;19.942;2023-05-12T08:03:12;101292.25;;;19.21;33.35
60920;BME280;59039;52.108;19.942;2023-05-12T08:08:21;101295.55;;;19.13;32.09
60920;BME280;59039;52.108;19.942;2023-05-12T08:10:47;101300.84;;;19.11;31.96
60920;BME280;59039;52.108;19.942;2023-05-12T08:13:12;101291.10;;;19.11;31.87
60920;BME280;59039;52.108;19.942;2023-05-12T08:15:37;101295.62;;;19.10;31.27
60920;BME280;59039;52.108;19.942;2023-05-12T08:18:23;101293.02;;;19.03;31.22
60920;BME280;59039;52.108;19.942;2023-05-12T08:20:51;101300.05;;;18.98;30.89
60920;BME280;59039;52.108;19.942;2023-05-12T08:23:19;101293.30;;;18.96;30.85
60920;BME280;59039;52.108;19.942;2023-05-12T08:26:07;101292.32;;;18.93;31.09
60920;BME280;59039;52.108;19.942;2023-05-12T08:28:51;101293.27;;;18.95;30.80
60920;BME280;59039;52.108;19.942;2023-05-12T08:31:31;101295.91;;;18.95;30.32
60920;BME280;59039;52.108;19.942;2023-05-12T08:33:57;101295.17;;;18.88;29.99
60920;BME280;59039;52.108;19.942;2023-05-12T08:36:23;101291.64;;;18.84;30.24
60920;BME280;59039;52.108;19.942;2023-05-12T08:38:48;101291.27;;;18.81;30.00
60920;BME280;59039;52.108;19.942;2023-05-12T08:41:19;101290.94;;;18.74;29.92
60920;BME280;59039;52.108;19.942;2023-05-12T08:43:51;101286.14;;;18.69;30.26
60920;BME280;59039;52.108;19.942;2023-05-12T08:46:16;101289.90;;;18.68;30.42
60920;BME280;59039;52.108;19.942;2023-05-12T08:48:44;101286.75;;;18.70;30.38
60920;BME280;59039;52.108;19.942;2023-05-12T08:51:13;101292.16;;;18.72;30.65
60920;BME280;59039;52.108;19.942;2023-05-12T08:53:44;101291.11;;;18.67;30.70
60920;BME280;59039;52.108;19.942;2023-05-12T08:56:11;101292.20;;;18.61;30.60
60920;BME280;59039;52.108;19.942;2023-05-12T08:58:38;101295.56;;;18.57;30.80
60920;BME280;59039;52.108;19.942;2023-05-12T09:01:06;101294.42;;;18.59;30.40
60920;BME280;59039;52.108;19.942;2023-05-12T09:03:53;101291.44;;;18.58;30.30
60920;BME280;59039;52.108;19.942;2023-05-12T09:06:18;101293.29;;;18.55;30.74
60920;BME280;59039;52.108;19.942;2023-05-12T09:08:44;101300.27;;;18.58;30.31
60920;BME280;59039;52.108;19.942;2023-05-12T09:11:10;101298.04;;;18.58;30.59
60920;BME280;59039;52.108;19.942;2023-05-12T09:14:03;101301.73;;;18.58;30.61
60920;BME280;59039;52.108;19.942;2023-05-12T09:16:31;101299.26;;;18.60;30.21
60920;BME280;59039;52.108;19.942;2023-05-12T09:18:58;101296.23;;;18.61;30.45
60920;BME280;59039;52.108;19.942;2023-05-12T09:21:24;101296.36;;;18.65;30.30
60920;BME280;59039;52.108;19.942;2023-05-12T09:24:16;101292.58;;;18.66;29.94
60920;BME280;59039;52.108;19.942;2023-05-12T09:26:49;101291.78;;;18.63;29.91
60920;BME280;59039;52.108;19.942;2023-05-12T09:29:15;101287.15;;;18.60;29.95
60920;BME280;59039;52.108;19.942;2023-05-12T09:31:55;101288.78;;;18.62;29.82
60920;BME280;59039;52.108;19.942;2023-05-12T09:34:28;101284.14;;;18.63;29.99
60920;BME280;59039;52.108;19.942;2023-05-12T09:36:58;101284.17;;;18.65;29.93
60920;BME280;59039;52.108;19.942;2023-05-12T09:39:24;101283.77;;;18.67;29.70
60920;BME280;59039;52.108;19.942;2023-05-12T09:41:52;101277.17;;;18.67;29.68
60920;BME280;59039;52.108;19.942;2023-05-12T09:44:17;101276.45;;;18.67;30.19
60920;BME280;59039;52.108;19.942;2023-05-12T09:46:43;101274.63;;;18.71;30.12
60920;BME280;59039;52.108;19.942;2023-05-12T09:49:09;101273.05;;;18.74;30.14
60920;BME280;59039;52.108;19.942;2023-05-12T09:51:35;101272.67;;;18.75;29.77
60920;BME280;59039;52.108;19.942;2023-05-12T09:54:03;101270.89;;;18.72;29.78
60920;BME280;59039;52.108;19.942;2023-05-12T09:56:29;101270.48;;;18.75;30.17
60920;BME280;59039;52.108;19.942;2023-05-12T09:58:58;101281.52;;;18.81;30.44
60920;BME280;59039;52.108;19.942;2023-05-12T10:01:26;101288.83;;;18.84;30.08
60920;BME280;59039;52.108;19.942;2023-05-12T10:03:57;101281.05;;;18.80;30.19
60920;BME280;59039;52.108;19.942;2023-05-12T10:09:20;101274.73;;;18.77;30.00
60920;BME280;59039;52.108;19.942;2023-05-12T10:11:49;101269.55;;;18.78;30.47
60920;BME280;59039;52.108;19.942;2023-05-12T10:14:34;101273.25;;;18.83;30.30
60920;BME280;59039;52.108;19.942;2023-05-12T10:16:59;101265.54;;;18.87;30.28
60920;BME280;59039;52.108;19.942;2023-05-12T10:19:27;101272.31;;;18.93;30.38
60920;BME280;59039;52.108;19.942;2023-05-12T10:21:55;101273.64;;;18.99;30.66
60920;BME280;59039;52.108;19.942;2023-05-12T10:24:24;101272.61;;;19.02;30.38
60920;BME280;59039;52.108;19.942;2023-05-12T10:26:53;101267.08;;;19.03;30.55
60920;BME280;59039;52.108;19.942;2023-05-12T10:29:28;101265.30;;;19.10;30.68
60920;BME280;59039;52.108;19.942;2023-05-12T10:31:57;101276.48;;;19.12;30.11
60920;BME280;59039;52.108;19.942;2023-05-12T10:34:38;101274.28;;;19.03;29.91
60920;BME280;59039;52.108;19.942;2023-05-12T10:37:20;101273.00;;;18.96;30.07
60920;BME280;59039;52.108;19.942;2023-05-12T10:39:47;101263.29;;;18.93;30.35
60920;BME280;59039;52.108;19.942;2023-05-12T10:42:24;101270.66;;;18.96;30.34
60920;BME280;59039;52.108;19.942;2023-05-12T10:44:59;101270.77;;;18.92;30.30
60920;BME280;59039;52.108;19.942;2023-05-12T10:47:25;101268.10;;;18.92;30.10
60920;BME280;59039;52.108;19.942;2023-05-12T10:50:00;101268.91;;;18.96;30.01
60920;BME280;59039;52.108;19.942;2023-05-12T10:52:25;101264.03;;;19.01;29.77
60920;BME280;59039;52.108;19.942;2023-05-12T10:55:01;101261.28;;;19.04;29.66
60920;BME280;59039;52.108;19.942;2023-05-12T10:57:27;101260.84;;;19.06;29.89
60920;BME280;59039;52.108;19.942;2023-05-12T10:59:59;101265.63;;;19.09;30.00
60920;BME280;59039;52.108;19.942;2023-05-12T11:02:25;101261.75;;;19.10;29.89
60920;BME280;59039;52.108;19.942;2023-05-12T11:04:54;101261.44;;;19.09;29.61
60920;BME280;59039;52.108;19.942;2023-05-12T11:07:31;101267.45;;;19.09;29.57
60920;BME280;59039;52.108;19.942;2023-05-12T11:09:59;101267.40;;;19.08;29.22
60920;BME280;59039;52.108;19.942;2023-05-12T11:12:26;101262.66;;;19.06;29.09
60920;BME280;59039;52.108;19.942;2023-05-12T11:14:52;101258.17;;;19.05;29.14
60920;BME280;59039;52.108;19.942;2023-05-12T11:17:17;101250.56;;;19.06;29.63
60920;BME280;59039;52.108;19.942;2023-05-12T11:19:47;101248.29;;;19.11;29.82
60920;BME280;59039;52.108;19.942;2023-05-12T11:22:16;101260.27;;;19.16;29.64
60920;BME280;59039;52.108;19.942;2023-05-12T11:24:41;101260.32;;;19.22;28.88
60920;BME280;59039;52.108;19.942;2023-05-12T11:27:12;101265.42;;;19.24;28.61
60920;BME280;59039;52.108;19.942;2023-05-12T11:29:38;101263.94;;;19.21;28.59
60920;BME280;59039;52.108;19.942;2023-05-12T11:32:03;101265.56;;;19.18;28.59
60920;BME280;59039;52.108;19.942;2023-05-12T11:34:28;101263.89;;;19.17;28.99
60920;BME280;59039;52.108;19.942;2023-05-12T11:36:55;101260.04;;;19.21;28.58
60920;BME280;59039;52.108;19.942;2023-05-12T11:39:22;101262.54;;;19.24;28.27
60920;BME280;59039;52.108;19.942;2023-05-12T11:41:48;101260.23;;;19.23;28.43
60920;BME280;59039;52.108;19.942;2023-05-12T11:44:21;101256.67;;;19.23;28.39
60920;BME280;59039;52.108;19.942;2023-05-12T11:46:57;101252.40;;;19.27;28.36
60920;BME280;59039;52.108;19.942;2023-05-12T11:49:22;101263.34;;;19.30;27.98
60920;BME280;59039;52.108;19.942;2023-05-12T11:51:50;101262.59;;;19.32;28.02
60920;BME280;59039;52.108;19.942;2023-05-12T11:54:15;101260.03;;;19.33;28.05
60920;BME280;59039;52.108;19.942;2023-05-12T11:56:55;101255.58;;;19.36;27.46
60920;BME280;59039;52.108;19.942;2023-05-12T11:59:39;101249.06;;;19.37;28.21
60920;BME280;59039;52.108;19.942;2023-05-12T12:02:04;101256.27;;;19.43;27.97
60920;BME280;59039;52.108;19.942;2023-05-12T12:04:37;101249.70;;;19.46;27.69
60920;BME280;59039;52.108;19.942;2023-05-12T12:07:07;101257.02;;;19.47;27.76
60920;BME280;59039;52.108;19.942;2023-05-12T12:09:36;101262.84;;;19.46;27.58
60920;BME280;59039;52.108;19.942;2023-05-12T12:14:42;101258.52;;;19.41;27.14
60920;BME280;59039;52.108;19.942;2023-05-12T12:17:07;101250.73;;;19.38;27.27
60920;BME280;59039;52.108;19.942;2023-05-12T12:19:35;101253.58;;;19.39;27.22
60920;BME280;59039;52.108;19.942;2023-05-12T12:22:01;101260.73;;;19.42;26.38
60920;BME280;59039;52.108;19.942;2023-05-12T12:24:27;101259.27;;;19.41;26.23
60920;BME280;59039;52.108;19.942;2023-05-12T12:26:52;101255.72;;;19.40;26.49
60920;BME280;59039;52.108;19.942;2023-05-12T12:29:20;101251.10;;;19.38;27.07
60920;BME280;59039;52.108;19.942;2023-05-12T12:31:45;101250.73;;;19.38;26.82
60920;BME280;59039;52.108;19.942;2023-05-12T12:34:11;101248.14;;;19.41;27.00
60920;BME280;59039;52.108;19.942;2023-05-12T12:36:43;101248.69;;;19.45;26.84
60920;BME280;59039;52.108;19.942;2023-05-12T12:39:16;101247.27;;;19.47;27.01
60920;BME280;59039;52.108;19.942;2023-05-12T12:41:53;101248.66;;;19.51;26.55
60920;BME280;59039;52.108;19.942;2023-05-12T12:44:18;101246.00;;;19.51;26.67
60920;BME280;59039;52.108;19.942;2023-05-12T12:46:46;101250.04;;;19.51;26.64
60920;BME280;59039;52.108;19.942;2023-05-12T12:49:12;101249.42;;;19.49;26.26
60920;BME280;59039;52.108;19.942;2023-05-12T12:51:37;101245.52;;;19.49;26.08
60920;BME280;59039;52.108;19.942;2023-05-12T12:54:02;101243.48;;;19.49;25.64
60920;BME280;59039;52.108;19.942;2023-05-12T12:56:28;101243.71;;;19.51;25.77
60920;BME280;59039;52.108;19.942;2023-05-12T12:58:56;101235.48;;;19.52;25.74
60920;BME280;59039;52.108;19.942;2023-05-12T13:01:21;101236.11;;;19.54;25.18
60920;BME280;59039;52.108;19.942;2023-05-12T13:04:00;101232.27;;;19.55;24.67
60920;BME280;59039;52.108;19.942;2023-05-12T13:06:28;101231.42;;;19.55;25.36
60920;BME280;59039;52.108;19.942;2023-05-12T13:09:02;101236.02;;;19.59;25.63
60920;BME280;59039;52.108;19.942;2023-05-12T13:11:28;101232.45;;;19.61;25.03
60920;BME280;59039;52.108;19.942;2023-05-12T13:13:56;101225.89;;;19.58;25.49
60920;BME280;59039;52.108;19.942;2023-05-12T13:16:22;101222.38;;;19.58;25.58
60920;BME280;59039;52.108;19.942;2023-05-12T13:18:47;101221.56;;;19.61;25.94
60920;BME280;59039;52.108;19.942;2023-05-12T13:21:12;101220.48;;;19.67;25.15
60920;BME280;59039;52.108;19.942;2023-05-12T13:23:47;101212.27;;;19.65;25.34
60920;BME280;59039;52.108;19.942;2023-05-12T13:26:12;101220.08;;;19.68;25.36
60920;BME280;59039;52.108;19.942;2023-05-12T13:28:37;101214.66;;;19.71;25.30